Time;durP1;ratioP1;P1;durP2;ratioP2;P2;SDS_P1;SDS_P2;PMS_P1;PMS_P2;Temp;Humidity;BMP_temperature;BMP_pressure;BME280_temperature;BME280_humidity;BME280_pressure;Samples;Min_cycle;Max_cycle;Signal;HPM_P1;HPM_P2
2022/11/30 00:01:57;;;;;;;1999.90;999.90;;;7.10;99.90;;;;;;5055446;28;20196;-69
2022/11/30 00:04:22;;;;;;;1999.90;999.90;;;7.00;99.90;;;;;;5055359;28;20199;-68
2022/11/30 00:06:48;;;;;;;1999.90;999.90;;;7.10;99.90;;;;;;5055187;28;20250;-68
2022/11/30 00:09:14;;;;;;;1999.90;999.90;;;7.10;99.90;;;;;;5055270;28;20180;-69
2022/11/30 00:11:39;;;;;;;1999.90;999.90;;;7.10;99.90;;;;;;5055458;28;20206;-68
2022/11/30 00:14:05;;;;;;;1999.90;999.90;;;7.10;99.90;;;;;;5055165;28;20198;-69
2022/11/30 00:16:31;;;;;;;1999.90;999.90;;;7.10;99.90;;;;;;5055012;28;20545;-69
2022/11/30 00:18:56;;;;;;;1999.90;999.90;;;7.20;99.90;;;;;;5054949;28;20185;-69
2022/11/30 00:21:22;;;;;;;1999.90;999.90;;;7.20;99.90;;;;;;5055346;28;20172;-69
2022/11/30 00:23:48;;;;;;;1999.90;999.90;;;7.20;99.90;;;;;;5054882;28;20245;-68
2022/11/30 00:26:16;;;;;;;1999.90;999.90;;;7.20;99.90;;;;;;5054910;28;20633;-69
2022/11/30 00:28:44;;;;;;;1999.90;999.90;;;7.20;99.90;;;;;;5054799;28;20405;-69
2022/11/30 00:31:12;;;;;;;1999.90;999.90;;;7.30;99.90;;;;;;5055076;28;20831;-68
2022/11/30 00:33:38;;;;;;;1999.90;999.90;;;7.30;99.90;;;;;;5054885;28;20422;-69
2022/11/30 00:36:07;;;;;;;1999.90;999.90;;;7.40;99.90;;;;;;5054737;28;20488;-69
2022/11/30 00:38:33;;;;;;;1999.90;999.90;;;7.50;99.90;;;;;;5054546;28;20832;-69
2022/11/30 00:41:00;;;;;;;1999.90;999.90;;;7.50;99.90;;;;;;5054932;28;20468;-69
2022/11/30 00:43:26;;;;;;;1999.90;999.90;;;7.60;99.90;;;;;;5054810;28;20206;-69
2022/11/30 00:45:53;;;;;;;1999.90;999.90;;;7.60;99.90;;;;;;5054687;28;20462;-69
2022/11/30 00:48:18;;;;;;;1999.90;999.90;;;7.70;99.90;;;;;;5054427;28;20199;-69
2022/11/30 00:50:44;;;;;;;1999.90;999.90;;;7.80;99.90;;;;;;5054366;28;20439;-69
2022/11/30 00:53:10;;;;;;;1999.90;999.90;;;7.70;99.90;;;;;;5054331;28;20189;-69
2022/11/30 00:55:35;;;;;;;1999.90;999.90;;;7.70;99.90;;;;;;5054451;28;20172;-68
2022/11/30 00:58:01;;;;;;;1999.90;999.90;;;7.70;99.90;;;;;;5054153;28;20546;-69
2022/11/30 01:00:27;;;;;;;1999.90;999.90;;;7.70;99.90;;;;;;5054451;28;20183;-69
2022/11/30 01:02:58;;;;;;;1999.90;999.90;;;7.70;99.90;;;;;;5054353;28;20196;-69
2022/11/30 01:05:24;;;;;;;1999.90;999.90;;;7.80;99.90;;;;;;5054263;28;20447;-68
2022/11/30 01:07:49;;;;;;;1999.90;999.90;;;7.80;99.90;;;;;;5053945;28;20764;-68
2022/11/30 01:10:15;;;;;;;1999.90;999.90;;;7.80;99.90;;;;;;5054240;28;20415;-69
2022/11/30 01:12:41;;;;;;;1999.90;999.90;;;7.80;99.90;;;;;;5054145;28;20230;-69
2022/11/30 01:15:07;;;;;;;1999.90;999.90;;;7.80;99.90;;;;;;5054197;28;20903;-69
2022/11/30 01:17:33;;;;;;;1999.90;999.90;;;7.80;99.90;;;;;;5053617;28;20234;-69
2022/11/30 01:19:58;;;;;;;1999.90;999.90;;;7.80;99.90;;;;;;5053967;28;20797;-69
2022/11/30 01:22:24;;;;;;;1999.90;999.90;;;7.70;99.90;;;;;;5053763;28;20290;-69
2022/11/30 01:24:49;;;;;;;1999.90;999.90;;;7.70;99.90;;;;;;5053897;28;20195;-69
2022/11/30 01:27:15;;;;;;;1999.90;999.90;;;7.70;99.90;;;;;;5053659;28;20174;-69
2022/11/30 01:29:41;;;;;;;1999.90;999.90;;;7.60;99.90;;;;;;5053796;28;20633;-68
2022/11/30 01:32:06;;;;;;;1999.90;999.90;;;7.60;99.90;;;;;;5053743;28;20195;-69
2022/11/30 01:34:32;;;;;;;1999.90;999.90;;;7.60;99.90;;;;;;5053734;28;20171;-68
2022/11/30 01:36:57;;;;;;;1999.90;999.90;;;7.60;99.90;;;;;;5053485;28;20184;-69
2022/11/30 01:39:23;;;;;;;1999.90;999.90;;;7.60;99.90;;;;;;5053561;28;20254;-69
2022/11/30 01:41:48;;;;;;;1999.90;999.90;;;7.60;99.90;;;;;;5053498;28;20196;-69
2022/11/30 01:44:14;;;;;;;1999.90;999.90;;;7.60;99.90;;;;;;5053446;28;20214;-69
2022/11/30 01:47:08;;;;;;;1999.90;999.90;;;7.60;99.90;;;;;;5053322;28;20222;-69
2022/11/30 01:49:40;;;;;;;1999.90;999.90;;;7.60;99.90;;;;;;5049411;28;20241;-69
2022/11/30 01:52:31;;;;;;;1999.90;999.90;;;7.60;99.90;;;;;;5053359;28;20430;-68
2022/11/30 01:55:02;;;;;;;1999.90;999.90;;;7.60;99.90;;;;;;5053578;28;20980;-68
2022/11/30 01:57:34;;;;;;;1999.90;999.90;;;7.60;99.90;;;;;;5053097;28;20453;-68
2022/11/30 02:00:04;;;;;;;1999.90;999.90;;;7.60;99.90;;;;;;5053567;28;20400;-69
2022/11/30 02:02:49;;;;;;;1999.90;999.90;;;7.60;99.90;;;;;;5052053;28;20513;-69
2022/11/30 02:05:16;;;;;;;1999.90;999.90;;;7.60;99.90;;;;;;5053110;28;21027;-69
2022/11/30 02:07:42;;;;;;;1999.90;999.90;;;7.60;99.90;;;;;;5052914;28;20752;-68
2022/11/30 02:10:14;;;;;;;1999.90;999.90;;;7.60;99.90;;;;;;5053044;28;20425;-69
2022/11/30 02:13:05;;;;;;;1999.90;999.90;;;7.60;99.90;;;;;;5053226;28;20216;-69
2022/11/30 02:15:41;;;;;;;1999.90;999.90;;;7.60;99.90;;;;;;5053040;28;20406;-69
2022/11/30 02:18:15;;;;;;;1999.90;999.90;;;7.60;99.90;;;;;;5052297;28;20525;-69
2022/11/30 02:20:54;;;;;;;1999.90;999.90;;;7.60;99.90;;;;;;5052863;28;20402;-69
2022/11/30 02:24:09;;;;;;;1999.90;999.90;;;7.60;99.90;;;;;;5052656;28;20449;-69
2022/11/30 02:26:46;;;;;;;1999.90;999.90;;;7.60;99.90;;;;;;4971593;28;20431;-69
2022/11/30 02:29:37;;;;;;;1999.90;999.90;;;7.60;99.90;;;;;;5042351;28;20749;-69
2022/11/30 02:32:18;;;;;;;1999.90;999.90;;;7.60;99.90;;;;;;5052661;28;20418;-68
2022/11/30 02:34:46;;;;;;;1999.90;999.90;;;7.60;99.90;;;;;;5052645;28;20398;-69
2022/11/30 02:37:14;;;;;;;1999.90;999.90;;;7.70;99.90;;;;;;5052268;28;20456;-69
2022/11/30 02:39:39;;;;;;;1999.90;999.90;;;7.60;99.90;;;;;;5052673;28;20430;-69
2022/11/30 02:42:10;;;;;;;1999.90;999.90;;;7.70;99.90;;;;;;5052450;28;20447;-68
2022/11/30 02:44:36;;;;;;;1999.90;999.90;;;7.60;99.90;;;;;;5052524;28;20595;-68
2022/11/30 02:47:34;;;;;;;1999.90;999.90;;;7.60;99.90;;;;;;5052111;28;20399;-68
2022/11/30 02:50:14;;;;;;;1999.90;999.90;;;7.70;99.90;;;;;;5052356;28;20167;-68
2022/11/30 02:52:40;;;;;;;1999.90;999.90;;;7.70;99.90;;;;;;5052304;28;20421;-69
2022/11/30 02:55:08;;;;;;;1999.90;999.90;;;7.70;99.90;;;;;;5052293;28;20409;-69
2022/11/30 02:57:34;;;;;;;1999.90;999.90;;;7.70;99.90;;;;;;5051988;28;20398;-68
2022/11/30 03:00:03;;;;;;;1999.90;999.90;;;7.70;99.90;;;;;;5052256;28;20910;-68
2022/11/30 03:02:28;;;;;;;1999.90;999.90;;;7.70;99.90;;;;;;5051947;28;20513;-68
2022/11/30 03:04:54;;;;;;;1999.90;999.90;;;7.70;99.90;;;;;;5052230;28;20540;-68
2022/11/30 03:07:20;;;;;;;1999.90;999.90;;;7.70;99.90;;;;;;5051908;28;20160;-69
2022/11/30 03:09:45;;;;;;;1999.90;999.90;;;7.60;99.90;;;;;;5052015;28;20723;-69
2022/11/30 03:12:11;;;;;;;1999.90;999.90;;;7.60;99.90;;;;;;5051933;28;20196;-69
2022/11/30 03:14:36;;;;;;;1999.90;999.90;;;7.60;99.90;;;;;;5051125;28;20174;-68
2022/11/30 03:17:02;;;;;;;1999.90;999.90;;;7.60;99.90;;;;;;5051322;28;20180;-69
2022/11/30 03:19:28;;;;;;;1999.90;999.90;;;7.60;99.90;;;;;;5051752;28;20653;-68
2022/11/30 03:21:53;;;;;;;1999.90;999.90;;;7.60;99.90;;;;;;5051850;28;20418;-69
2022/11/30 03:24:19;;;;;;;1999.90;999.90;;;7.60;99.90;;;;;;5051707;28;20200;-68
2022/11/30 03:26:44;;;;;;;1999.90;999.90;;;7.60;99.90;;;;;;5051689;28;20651;-68
2022/11/30 03:29:10;;;;;;;1999.90;999.90;;;7.50;99.90;;;;;;5051824;28;20681;-68
2022/11/30 03:31:35;;;;;;;1999.90;999.90;;;7.50;99.90;;;;;;5051719;28;20629;-68
2022/11/30 03:34:01;;;;;;;1999.90;999.90;;;7.50;99.90;;;;;;5051827;28;20255;-68
2022/11/30 03:36:27;;;;;;;1999.90;999.90;;;7.60;99.90;;;;;;5051831;28;20188;-69
2022/11/30 03:38:52;;;;;;;1999.90;999.90;;;7.60;99.90;;;;;;5051629;28;20167;-69
2022/11/30 03:41:18;;;;;;;1999.90;999.90;;;7.60;99.90;;;;;;5051731;28;20172;-69
2022/11/30 03:43:45;;;;;;;1999.90;999.90;;;7.60;99.90;;;;;;5051631;28;20241;-69
2022/11/30 03:46:12;;;;;;;1999.90;999.90;;;7.70;99.90;;;;;;5051500;28;20580;-69
2022/11/30 03:48:37;;;;;;;1999.90;999.90;;;7.70;99.90;;;;;;5051480;28;20403;-70
2022/11/30 03:51:04;;;;;;;1999.90;999.90;;;7.70;99.90;;;;;;5051808;28;20410;-70
2022/11/30 03:53:30;;;;;;;1999.90;999.90;;;7.70;99.90;;;;;;5052059;28;20183;-69
2022/11/30 03:56:01;;;;;;;1999.90;999.90;;;7.70;99.90;;;;;;5051448;28;20403;-69
2022/11/30 03:58:28;;;;;;;1999.90;999.90;;;7.70;99.90;;;;;;5051338;28;20422;-69
2022/11/30 04:01:09;;;;;;;1999.90;999.90;;;7.70;99.90;;;;;;5051506;28;21038;-69
2022/11/30 04:03:36;;;;;;;1999.90;999.90;;;7.60;99.90;;;;;;5051452;28;20430;-69
2022/11/30 04:06:03;;;;;;;1999.90;999.90;;;7.60;99.90;;;;;;5051356;28;20501;-69
2022/11/30 04:08:30;;;;;;;1999.90;999.90;;;7.60;99.90;;;;;;5051256;28;20409;-69
2022/11/30 04:10:57;;;;;;;1999.90;999.90;;;7.60;99.90;;;;;;5051400;28;20441;-69
2022/11/30 04:13:24;;;;;;;1999.90;999.90;;;7.60;99.90;;;;;;5051371;28;20479;-69
2022/11/30 04:15:51;;;;;;;1999.90;999.90;;;7.60;99.90;;;;;;5051296;28;20402;-69
2022/11/30 04:18:18;;;;;;;1999.90;999.90;;;7.50;99.90;;;;;;5050866;28;20410;-69
2022/11/30 04:20:44;;;;;;;1999.90;999.90;;;7.50;99.90;;;;;;5051432;28;20822;-68
2022/11/30 04:23:11;;;;;;;1999.90;999.90;;;7.40;99.90;;;;;;5051153;28;20474;-68
2022/11/30 04:25:40;;;;;;;1999.90;999.90;;;7.40;99.90;;;;;;5051283;28;20188;-69
2022/11/30 04:28:07;;;;;;;1999.90;999.90;;;7.50;99.90;;;;;;5054793;28;20414;-68
2022/11/30 04:30:35;;;;;;;1999.90;999.90;;;7.40;99.90;;;;;;5054974;28;20915;-68
2022/11/30 04:33:01;;;;;;;1999.90;999.90;;;7.40;99.90;;;;;;5054797;28;20786;-69
2022/11/30 04:35:27;;;;;;;1999.90;999.90;;;7.40;99.90;;;;;;5054880;28;20501;-68
2022/11/30 04:37:53;;;;;;;1999.90;999.90;;;7.40;99.90;;;;;;5054549;28;20458;-68
2022/11/30 04:40:18;;;;;;;1999.90;999.90;;;7.30;99.90;;;;;;5054737;28;20926;-68
2022/11/30 04:42:44;;;;;;;1999.90;999.90;;;7.40;99.90;;;;;;5054720;28;20426;-68
2022/11/30 04:45:10;;;;;;;1999.90;999.90;;;7.40;99.90;;;;;;5054832;28;20200;-68
2022/11/30 04:47:36;;;;;;;1999.90;999.90;;;7.40;99.90;;;;;;5054359;28;20170;-69
2022/11/30 04:50:02;;;;;;;1999.90;999.90;;;7.40;99.90;;;;;;5054624;28;20407;-68
2022/11/30 04:52:27;;;;;;;1999.90;999.90;;;7.40;99.90;;;;;;5054597;28;20544;-68
2022/11/30 04:54:54;;;;;;;1999.90;999.90;;;7.40;99.90;;;;;;5054496;28;20402;-68
2022/11/30 04:57:20;;;;;;;1999.90;999.90;;;7.40;99.90;;;;;;5054183;28;20226;-68
2022/11/30 04:59:45;;;;;;;1999.90;999.90;;;7.40;99.90;;;;;;5054355;28;20406;-68
2022/11/30 05:02:11;;;;;;;1999.90;999.90;;;7.50;99.90;;;;;;5054325;28;20197;-68
2022/11/30 05:04:37;;;;;;;1999.90;999.90;;;7.50;99.90;;;;;;5054295;28;20754;-69
2022/11/30 05:07:02;;;;;;;1999.90;999.90;;;7.50;99.90;;;;;;5054238;28;20569;-68
2022/11/30 05:09:28;;;;;;;1999.90;999.90;;;7.50;99.90;;;;;;5054131;28;20422;-69
2022/11/30 05:11:53;;;;;;;1999.90;999.90;;;7.50;99.90;;;;;;5054139;28;20249;-69
2022/11/30 05:14:19;;;;;;;1999.90;999.90;;;7.50;99.90;;;;;;5054116;28;20168;-69
2022/11/30 05:16:48;;;;;;;1999.90;999.90;;;7.50;99.90;;;;;;5053911;28;20522;-68
2022/11/30 05:19:14;;;;;;;1999.90;999.90;;;7.50;99.90;;;;;;5053942;28;20172;-69
2022/11/30 05:21:41;;;;;;;1999.90;999.90;;;7.40;99.90;;;;;;5053977;28;20398;-68
2022/11/30 05:24:07;;;;;;;1999.90;999.90;;;7.40;99.90;;;;;;5053790;28;20437;-68
2022/11/30 05:26:34;;;;;;;1999.90;999.90;;;7.40;99.90;;;;;;5053855;28;20888;-68
2022/11/30 05:28:59;;;;;;;1999.90;999.90;;;7.40;99.90;;;;;;5053598;28;20394;-69
2022/11/30 05:31:25;;;;;;;1999.90;999.90;;;7.30;99.90;;;;;;5053854;28;20813;-69
2022/11/30 05:33:51;;;;;;;1999.90;999.90;;;7.20;99.90;;;;;;5053703;28;20633;-68
2022/11/30 05:36:17;;;;;;;1999.90;999.90;;;7.30;99.90;;;;;;5053714;28;20172;-69
2022/11/30 05:38:43;;;;;;;1999.90;999.90;;;7.30;99.90;;;;;;5052415;28;20907;-68
2022/11/30 05:41:09;;;;;;;1999.90;999.90;;;7.30;99.90;;;;;;5053659;28;20402;-69
2022/11/30 05:43:35;;;;;;;1999.90;999.90;;;7.20;99.90;;;;;;5053615;28;20462;-69
2022/11/30 05:46:02;;;;;;;1999.90;999.90;;;7.30;99.90;;;;;;5053348;28;20563;-69
2022/11/30 05:48:28;;;;;;;1999.90;999.90;;;7.30;99.90;;;;;;5053372;28;20175;-68
2022/11/30 05:50:54;;;;;;;1999.90;999.90;;;7.30;99.90;;;;;;5053434;28;20846;-69
2022/11/30 05:53:19;;;;;;;1999.90;999.90;;;7.30;99.90;;;;;;5053355;28;20187;-69
2022/11/30 05:55:45;;;;;;;1999.90;999.90;;;7.40;99.90;;;;;;5053268;28;20167;-68
2022/11/30 05:58:10;;;;;;;1999.90;999.90;;;7.40;99.90;;;;;;5053071;28;20176;-69
2022/11/30 06:00:36;;;;;;;1999.90;999.90;;;7.40;99.90;;;;;;5053264;28;20168;-68
2022/11/30 06:03:02;;;;;;;1999.90;999.90;;;7.40;99.90;;;;;;5053177;28;20195;-69
2022/11/30 06:05:27;;;;;;;1999.90;999.90;;;7.30;99.90;;;;;;5053089;28;20192;-69
2022/11/30 06:07:54;;;;;;;1999.90;999.90;;;7.30;99.90;;;;;;5052807;28;20702;-69
2022/11/30 06:10:20;;;;;;;1999.90;999.90;;;7.30;99.90;;;;;;5053114;28;20520;-69
2022/11/30 06:12:47;;;;;;;1999.90;999.90;;;7.20;99.90;;;;;;5052837;28;20499;-69
2022/11/30 06:15:13;;;;;;;1999.90;999.90;;;7.20;99.90;;;;;;5053265;28;20398;-69
2022/11/30 06:17:38;;;;;;;1999.90;999.90;;;7.20;99.90;;;;;;5052754;28;20497;-69
2022/11/30 06:20:05;;;;;;;1999.90;999.90;;;7.30;99.90;;;;;;5071348;28;20637;-69
2022/11/30 06:22:31;;;;;;;1999.90;999.90;;;7.20;99.90;;;;;;5072560;28;20257;-69
2022/11/30 06:24:56;;;;;;;1999.90;999.90;;;7.30;99.90;;;;;;5072734;28;20484;-69
2022/11/30 06:27:22;;;;;;;1999.90;999.90;;;7.30;99.90;;;;;;5072247;28;20221;-69
2022/11/30 06:29:48;;;;;;;1999.90;999.90;;;7.30;99.90;;;;;;5072592;28;20203;-69
2022/11/30 06:32:13;;;;;;;1999.90;999.90;;;7.30;99.90;;;;;;5072540;28;20205;-69
2022/11/30 06:34:39;;;;;;;1999.90;999.90;;;7.40;99.90;;;;;;5072505;28;20167;-69
2022/11/30 06:37:04;;;;;;;1999.90;999.90;;;7.30;99.90;;;;;;5072254;28;20576;-69
2022/11/30 06:39:30;;;;;;;1999.90;999.90;;;7.40;99.90;;;;;;5072440;28;20175;-69
2022/11/30 06:41:55;;;;;;;1999.90;999.90;;;7.40;99.90;;;;;;5072581;28;20188;-69
2022/11/30 06:44:21;;;;;;;1999.90;999.90;;;7.50;99.90;;;;;;5072446;28;20192;-69
2022/11/30 06:46:46;;;;;;;1999.90;999.90;;;7.50;99.90;;;;;;5072180;28;20163;-68
2022/11/30 06:49:12;;;;;;;1999.90;999.90;;;7.60;99.90;;;;;;5072054;28;20171;-69
2022/11/30 06:51:38;;;;;;;1999.90;999.90;;;7.50;99.90;;;;;;5072180;28;20641;-68
2022/11/30 06:54:05;;;;;;;1999.90;999.90;;;7.40;99.90;;;;;;5072263;28;20170;-68
2022/11/30 06:56:30;;;;;;;1999.90;999.90;;;7.30;99.90;;;;;;5072091;28;20455;-69
2022/11/30 06:58:56;;;;;;;1999.90;999.90;;;7.30;99.90;;;;;;5071992;28;20500;-69
2022/11/30 07:01:22;;;;;;;1999.90;999.90;;;7.20;99.90;;;;;;5072257;28;20173;-69
2022/11/30 07:03:48;;;;;;;1999.90;999.90;;;7.20;99.90;;;;;;5072018;28;20646;-69
2022/11/30 07:06:14;;;;;;;1999.90;999.90;;;7.10;99.90;;;;;;5071959;28;20463;-68
2022/11/30 07:08:41;;;;;;;1999.90;999.90;;;7.10;99.90;;;;;;5071880;28;20922;-69
2022/11/30 07:11:07;;;;;;;1999.90;999.90;;;7.10;99.90;;;;;;5072025;28;20212;-69
2022/11/30 07:13:33;;;;;;;1999.90;999.90;;;7.10;99.90;;;;;;5071848;28;20414;-69
2022/11/30 07:16:03;;;;;;;1999.90;999.90;;;7.00;99.90;;;;;;5071908;28;20405;-69
2022/11/30 07:18:28;;;;;;;1999.90;999.90;;;7.00;99.90;;;;;;5071700;28;20415;-69
2022/11/30 07:21:01;;;;;;;1999.90;999.90;;;7.00;99.90;;;;;;5071920;28;20879;-69
2022/11/30 07:26:11;;;;;;;1999.90;999.90;;;7.10;99.90;;;;;;5071744;28;20452;-69
2022/11/30 07:28:40;;;;;;;1999.90;999.90;;;7.20;99.90;;;;;;5071530;28;20397;-69
2022/11/30 07:31:18;;;;;;;1999.90;999.90;;;7.20;99.90;;;;;;5072003;28;20174;-69
2022/11/30 07:33:45;;;;;;;1999.90;999.90;;;7.20;99.90;;;;;;5071773;28;20417;-70
2022/11/30 07:36:10;;;;;;;1999.90;999.90;;;7.20;99.90;;;;;;5071742;28;20405;-70
2022/11/30 07:38:37;;;;;;;1999.90;999.90;;;7.10;99.90;;;;;;5071617;28;20820;-69
2022/11/30 07:41:03;;;;;;;1999.90;999.90;;;7.20;99.90;;;;;;5071681;28;20234;-69
2022/11/30 07:43:29;;;;;;;1999.90;999.90;;;7.10;99.90;;;;;;5071697;28;20422;-69
2022/11/30 07:45:54;;;;;;;1999.90;999.90;;;7.10;99.90;;;;;;5071727;28;20463;-69
2022/11/30 07:48:20;;;;;;;1999.90;999.90;;;7.10;99.90;;;;;;5071481;28;20594;-70
2022/11/30 07:50:47;;;;;;;1999.90;999.90;;;7.10;99.90;;;;;;5071554;28;20730;-70
2022/11/30 07:53:13;;;;;;;1999.90;999.90;;;7.20;99.90;;;;;;5071473;28;20432;-69
2022/11/30 07:55:38;;;;;;;1999.90;999.90;;;7.20;99.90;;;;;;5071530;28;20832;-69
2022/11/30 07:58:04;;;;;;;1999.90;999.90;;;7.20;99.90;;;;;;5071287;28;20500;-69
2022/11/30 08:00:30;;;;;;;1999.90;999.90;;;7.20;99.90;;;;;;5071594;28;20182;-69
2022/11/30 08:02:56;;;;;;;1999.90;999.90;;;7.10;99.90;;;;;;5075549;28;20584;-69
2022/11/30 08:05:22;;;;;;;1999.90;999.90;;;7.10;99.90;;;;;;5075450;28;20462;-69
2022/11/30 08:07:52;;;;;;;1999.90;999.90;;;7.10;99.90;;;;;;5075019;28;20170;-69
2022/11/30 08:10:19;;;;;;;1999.90;999.90;;;7.10;99.90;;;;;;5075282;28;20405;-69
2022/11/30 08:12:45;;;;;;;1999.90;999.90;;;7.00;99.90;;;;;;5075117;28;20438;-70
2022/11/30 08:15:11;;;;;;;1999.90;999.90;;;7.10;99.90;;;;;;5075329;28;20401;-70
2022/11/30 08:17:36;;;;;;;1999.90;999.90;;;7.10;99.90;;;;;;5074953;28;20166;-70
2022/11/30 08:20:03;;;;;;;1999.90;999.90;;;7.20;99.90;;;;;;5075214;28;20163;-70
2022/11/30 08:22:28;;;;;;;1999.90;999.90;;;7.20;99.90;;;;;;5074800;28;20557;-70
2022/11/30 08:24:54;;;;;;;1999.90;999.90;;;7.20;99.90;;;;;;5074930;28;20536;-70
2022/11/30 08:27:20;;;;;;;1999.90;999.90;;;7.20;99.90;;;;;;5074615;28;20540;-70
2022/11/30 08:29:45;;;;;;;1999.90;999.90;;;7.20;99.90;;;;;;5074901;28;20178;-70
2022/11/30 08:32:11;;;;;;;1999.90;999.90;;;7.30;99.90;;;;;;5074775;28;20183;-70
2022/11/30 08:34:36;;;;;;;1999.90;999.90;;;7.30;99.90;;;;;;5074875;28;20281;-70
2022/11/30 08:37:03;;;;;;;1999.90;999.90;;;7.40;99.90;;;;;;5074463;28;20179;-70
2022/11/30 08:39:30;;;;;;;1999.90;999.90;;;7.40;99.90;;;;;;5074659;28;20714;-70
2022/11/30 08:41:56;;;;;;;1999.90;999.90;;;7.30;99.90;;;;;;5074558;28;20421;-70
2022/11/30 08:44:22;;;;;;;1999.90;999.90;;;7.20;99.90;;;;;;5074625;28;20412;-70
2022/11/30 08:46:47;;;;;;;1999.90;999.90;;;7.10;99.90;;;;;;5074388;28;20585;-70
2022/11/30 08:49:13;;;;;;;1999.90;999.90;;;7.10;99.90;;;;;;5074446;28;20191;-69
2022/11/30 08:51:38;;;;;;;1999.90;999.90;;;7.00;99.90;;;;;;5074453;28;20170;-69
2022/11/30 08:54:04;;;;;;;1999.90;999.90;;;7.10;99.90;;;;;;5074417;28;20669;-69
2022/11/30 08:56:29;;;;;;;1999.90;999.90;;;7.00;99.90;;;;;;5074334;28;20167;-69
2022/11/30 08:58:55;;;;;;;1999.90;999.90;;;7.00;99.90;;;;;;5074198;28;20163;-69
2022/11/30 09:01:24;;;;;;;1999.90;999.90;;;7.00;99.90;;;;;;5074371;28;20648;-69
2022/11/30 09:03:52;;;;;;;1999.90;999.90;;;7.10;99.90;;;;;;5074329;28;20668;-69
2022/11/30 09:06:21;;;;;;;1999.90;999.90;;;7.10;99.90;;;;;;5074092;28;20459;-69
2022/11/30 09:08:49;;;;;;;1999.90;999.90;;;7.00;99.90;;;;;;5073986;28;20750;-70
2022/11/30 09:11:21;;;;;;;1999.90;999.90;;;7.00;99.90;;;;;;5074098;28;20405;-69
2022/11/30 09:13:48;;;;;;;1999.90;999.90;;;6.90;99.90;;;;;;5073834;28;20726;-69
2022/11/30 09:16:15;;;;;;;1999.90;999.90;;;6.90;99.90;;;;;;5074000;28;20433;-69
2022/11/30 09:18:41;;;;;;;1999.90;999.90;;;6.90;99.90;;;;;;5073869;28;20669;-69
2022/11/30 09:21:10;;;;;;;1999.90;999.90;;;6.90;99.90;;;;;;5073988;28;20413;-69
2022/11/30 09:23:36;;;;;;;1999.90;999.90;;;6.90;99.90;;;;;;5073662;28;20441;-69
2022/11/30 09:26:04;;;;;;;1999.90;999.90;;;6.90;99.90;;;;;;5073892;28;20481;-69
2022/11/30 09:28:31;;;;;;;1999.90;999.90;;;6.90;99.90;;;;;;5073830;28;20476;-69
2022/11/30 09:31:05;;;;;;;1999.90;999.90;;;6.90;99.90;;;;;;5073792;28;20405;-69
2022/11/30 09:33:31;;;;;;;1999.90;999.90;;;6.80;99.90;;;;;;5073707;28;20422;-69
2022/11/30 09:35:58;;;;;;;1999.90;999.90;;;6.80;99.90;;;;;;5073579;28;20414;-69
2022/11/30 09:38:24;;;;;;;1999.90;999.90;;;6.80;99.90;;;;;;5073366;28;20471;-69
2022/11/30 09:40:58;;;;;;;1999.90;999.90;;;6.70;99.90;;;;;;5073579;28;20418;-69
2022/11/30 09:43:31;;;;;;;1999.90;999.90;;;6.70;99.90;;;;;;5073462;28;20421;-69
2022/11/30 09:46:00;;;;;;;1999.90;999.90;;;6.70;99.90;;;;;;5073259;28;20479;-69
2022/11/30 09:48:29;;;;;;;1999.90;999.90;;;6.60;99.90;;;;;;5073310;28;20416;-69
2022/11/30 09:51:02;;;;;;;1999.90;999.90;;;6.70;99.90;;;;;;5073346;28;20398;-69
2022/11/30 09:53:40;;;;;;;1999.90;999.90;;;6.70;99.90;;;;;;5073723;28;20433;-69
2022/11/30 09:56:18;;;;;;;1999.90;999.90;;;6.70;99.90;;;;;;5073192;28;20969;-69
2022/11/30 09:58:49;;;;;;;1999.90;999.90;;;6.70;99.90;;;;;;5073112;28;20408;-69
2022/11/30 10:01:17;;;;;;;1999.90;999.90;;;6.70;99.90;;;;;;5073226;28;20925;-69
2022/11/30 10:03:44;;;;;;;1999.90;999.90;;;6.70;99.90;;;;;;5073176;28;20525;-69
2022/11/30 10:06:44;;;;;;;1999.90;999.90;;;6.70;99.90;;;;;;5072863;28;20544;-69
2022/11/30 10:09:25;;;;;;;1999.90;999.90;;;6.70;99.90;;;;;;5073012;28;20446;-69
2022/11/30 10:12:27;;;;;;;1999.90;999.90;;;6.70;99.90;;;;;;5073094;28;20425;-68
2022/11/30 10:15:22;;;;;;;1999.90;999.90;;;6.70;99.90;;;;;;5059765;28;20432;-68
2022/11/30 10:17:47;;;;;;;1999.90;999.90;;;6.70;99.90;;;;;;5072577;28;20610;-69
2022/11/30 10:20:29;;;;;;;1999.90;999.90;;;6.70;99.90;;;;;;5072690;28;20409;-69
2022/11/30 10:23:35;;;;;;;1999.90;999.90;;;6.70;99.90;;;;;;5072553;28;20264;-69
2022/11/30 10:26:05;;;;;;;1999.90;999.90;;;6.70;99.90;;;;;;5072587;28;20491;-69
2022/11/30 10:28:33;;;;;;;1999.90;999.90;;;6.70;99.90;;;;;;5072756;28;20412;-69
2022/11/30 10:31:01;;;;;;;1999.90;999.90;;;6.70;99.90;;;;;;5072597;28;20408;-69
2022/11/30 10:33:36;;;;;;;1999.90;999.90;;;6.80;99.90;;;;;;5072541;28;20425;-69
2022/11/30 10:36:08;;;;;;;1999.90;999.90;;;6.70;99.90;;;;;;5072412;28;20405;-69
2022/11/30 10:38:47;;;;;;;1999.90;999.90;;;6.80;99.90;;;;;;5072242;28;20401;-69
2022/11/30 10:41:16;;;;;;;1999.90;999.90;;;6.80;99.90;;;;;;5072462;28;20425;-69
2022/11/30 10:43:47;;;;;;;1999.90;999.90;;;6.90;99.90;;;;;;5072211;28;20474;-69
2022/11/30 10:46:37;;;;;;;1999.90;999.90;;;6.90;99.90;;;;;;5072124;28;20507;-69
2022/11/30 10:49:12;;;;;;;1999.90;999.90;;;6.90;99.90;;;;;;5072335;28;20935;-69
2022/11/30 10:51:41;;;;;;;1999.90;999.90;;;6.80;99.90;;;;;;5072094;28;20812;-68
2022/11/30 10:54:19;;;;;;;1999.90;999.90;;;6.80;99.90;;;;;;5050774;28;20414;-68
2022/11/30 10:56:46;;;;;;;1999.90;999.90;;;6.70;99.90;;;;;;5052001;28;20435;-67
2022/11/30 10:59:33;;;;;;;1999.90;999.90;;;6.80;99.90;;;;;;5052206;28;20405;-67
2022/11/30 11:01:58;;;;;;;1999.90;999.90;;;6.70;99.90;;;;;;5052410;28;20422;-67
2022/11/30 11:04:26;;;;;;;1999.90;999.90;;;6.70;99.90;;;;;;5049519;28;20452;-67
2022/11/30 11:07:07;;;;;;;1999.90;999.90;;;6.70;99.90;;;;;;5051546;28;20174;-68
2022/11/30 11:09:35;;;;;;;1999.90;999.90;;;6.70;99.90;;;;;;5052542;28;20418;-68
2022/11/30 11:12:26;;;;;;;1999.90;999.90;;;6.70;99.90;;;;;;5052382;28;20906;-69
2022/11/30 11:15:27;;;;;;;1999.90;999.90;;;6.70;99.90;;;;;;5051632;28;20883;-69
2022/11/30 11:18:19;;;;;;;1999.90;999.90;;;6.60;99.90;;;;;;5051280;28;20429;-69
2022/11/30 11:20:44;;;;;;;1999.90;999.90;;;6.70;99.90;;;;;;5051314;28;20536;-69
2022/11/30 11:23:29;;;;;;;1999.90;999.90;;;6.70;99.90;;;;;;5051280;28;20520;-69
2022/11/30 11:25:56;;;;;;;1999.90;999.90;;;6.70;99.90;;;;;;5051256;28;20585;-68
2022/11/30 11:28:23;;;;;;;1999.90;999.90;;;6.70;99.90;;;;;;5050790;28;20417;-69
2022/11/30 11:30:53;;;;;;;1999.90;999.90;;;6.80;99.90;;;;;;5051299;28;20441;-69
2022/11/30 11:33:28;;;;;;;1999.90;999.90;;;6.80;99.90;;;;;;5051224;28;20426;-69
2022/11/30 11:36:11;;;;;;;1999.90;999.90;;;6.80;99.90;;;;;;5051502;28;20410;-67
2022/11/30 11:38:45;;;;;;;1999.90;999.90;;;6.90;99.90;;;;;;5055436;28;20489;-69
2022/11/30 11:41:26;;;;;;;1999.90;999.90;;;6.90;99.90;;;;;;5054802;28;20406;-67
2022/11/30 11:44:07;;;;;;;1999.90;999.90;;;6.90;99.90;;;;;;5055732;28;20483;-69
2022/11/30 11:46:55;;;;;;;1999.90;999.90;;;6.90;99.90;;;;;;5055211;28;20503;-70
2022/11/30 11:49:35;;;;;;;1999.90;999.90;;;6.90;99.90;;;;;;5043870;28;20418;-68
2022/11/30 11:52:02;;;;;;;1999.90;999.90;;;6.90;99.90;;;;;;5055486;28;20425;-69
2022/11/30 11:54:50;;;;;;;1999.90;999.90;;;6.90;99.90;;;;;;5055225;28;20413;-70
2022/11/30 11:57:20;;;;;;;1999.90;999.90;;;7.00;99.90;;;;;;5054705;28;20398;-69
2022/11/30 11:59:55;;;;;;;1999.90;999.90;;;6.90;99.90;;;;;;5055073;28;20398;-70
2022/11/30 12:02:33;;;;;;;1999.90;999.90;;;6.90;99.90;;;;;;5055073;28;20437;-69
2022/11/30 12:05:15;;;;;;;1999.90;999.90;;;6.90;99.90;;;;;;5054546;28;20450;-70
2022/11/30 12:07:57;;;;;;;1999.90;999.90;;;6.90;99.90;;;;;;5054749;28;20540;-69
2022/11/30 12:10:54;;;;;;;1999.90;999.90;;;6.90;99.90;;;;;;5054695;28;20429;-70
2022/11/30 12:13:22;;;;;;;1999.90;999.90;;;6.80;99.90;;;;;;5054836;28;20935;-69
2022/11/30 12:16:13;;;;;;;1999.90;999.90;;;6.80;99.90;;;;;;5054887;28;21169;-69
2022/11/30 12:19:00;;;;;;;1999.90;999.90;;;6.80;99.90;;;;;;5054096;28;20414;-70
2022/11/30 12:21:40;;;;;;;1999.90;999.90;;;6.80;99.90;;;;;;5054567;28;20436;-69
2022/11/30 12:24:41;;;;;;;1999.90;999.90;;;6.80;99.90;;;;;;5054699;28;20532;-69